Time;durP1;ratioP1;P1;durP2;ratioP2;P2;SDS_P1;SDS_P2;PMS_P1;PMS_P2;Temp;Humidity;BMP_temperature;BMP_pressure;BME280_temperature;BME280_humidity;BME280_pressure;Samples;Min_cycle;Max_cycle;Signal;HPM_P1;HPM_P2
2023/09/30 00:00:44;;;;;;;30.60;14.20;;;;;;;20.06;50.64;99183.11;67861;1276;1016081;-66
2023/09/30 00:04:07;;;;;;;30.60;14.10;;;;;;;20.03;50.74;99186.06;67867;1276;1016350;-66
2023/09/30 00:07:09;;;;;;;33.20;14.10;;;;;;;20.04;50.73;99187.04;67871;1276;1016220;-65
2023/09/30 00:10:12;;;;;;;32.80;14.20;;;;;;;20.04;50.73;99183.14;67886;1276;1016144;-66
2023/09/30 00:13:14;;;;;;;31.60;14.10;;;;;;;20.03;50.91;99182.17;67879;1276;1016850;-66
2023/09/30 00:16:18;;;;;;;34.80;13.80;;;;;;;20.06;50.88;99178.54;67914;1276;1016396;-65
2023/09/30 00:19:22;;;;;;;31.20;14.20;;;;;;;20.14;50.77;99175.48;67887;1276;1016462;-65
2023/09/30 00:22:24;;;;;;;33.00;13.90;;;;;;;20.16;50.79;99175.47;67892;1276;1018296;-65
2023/09/30 00:25:27;;;;;;;29.60;13.70;;;;;;;20.15;50.87;99171.84;67852;1276;1016408;-65
2023/09/30 00:28:30;;;;;;;29.60;13.80;;;;;;;20.16;50.89;99166.63;67897;1276;1016208;-65
2023/09/30 00:31:32;;;;;;;32.50;14.30;;;;;;;20.15;51.01;99167.21;67884;1276;1016415;-66
2023/09/30 00:34:35;;;;;;;31.10;14.30;;;;;;;20.20;50.94;99161.38;67847;1276;1016152;-66
2023/09/30 00:37:37;;;;;;;31.90;13.90;;;;;;;20.19;50.78;99162.36;67889;1276;1016720;-65
2023/09/30 00:40:40;;;;;;;31.50;13.50;;;;;;;20.23;50.86;99160.20;67831;1276;1016441;-65
2023/09/30 00:43:42;;;;;;;32.70;13.40;;;;;;;20.21;50.99;99157.17;67881;1276;1016853;-65
2023/09/30 00:46:44;;;;;;;36.20;14.40;;;;;;;20.22;51.03;99147.86;67904;1276;1016400;-65
2023/09/30 00:49:47;;;;;;;30.10;14.60;;;;;;;20.27;50.89;99147.95;67902;1276;1016309;-65
2023/09/30 00:52:49;;;;;;;33.00;14.80;;;;;;;20.26;51.08;99144.31;67907;1276;1016513;-65
2023/09/30 00:55:51;;;;;;;32.30;14.60;;;;;;;20.30;51.13;99143.63;67875;1276;1016330;-65
2023/09/30 00:58:54;;;;;;;30.20;13.90;;;;;;;20.35;51.19;99146.25;67847;1276;1016684;-65
2023/09/30 01:01:57;;;;;;;30.70;13.80;;;;;;;20.40;51.05;99148.30;67842;1276;1016388;-65
2023/09/30 01:04:59;;;;;;;32.80;14.60;;;;;;;20.50;50.81;99148.61;67889;1276;1016519;-65
2023/09/30 01:08:01;;;;;;;30.90;13.90;;;;;;;20.45;50.87;99145.33;67879;1276;1016428;-65
2023/09/30 01:11:04;;;;;;;31.20;13.20;;;;;;;20.43;51.00;99146.39;67883;1276;1016305;-65
2023/09/30 01:14:06;;;;;;;28.00;13.10;;;;;;;20.34;50.97;99145.67;67864;1276;1016496;-65
2023/09/30 01:17:11;;;;;;;34.30;13.40;;;;;;;20.30;51.02;99147.64;67835;1276;1016251;-65
2023/09/30 01:20:16;;;;;;;33.90;14.10;;;;;;;20.40;51.13;99145.79;67904;1276;1016437;-65
2023/09/30 01:23:19;;;;;;;30.50;13.00;;;;;;;20.50;51.14;99145.61;67848;1276;1018957;-66
2023/09/30 01:26:22;;;;;;;30.30;13.00;;;;;;;20.59;50.98;99141.16;67901;1276;1016415;-65
2023/09/30 01:29:26;;;;;;;28.80;13.40;;;;;;;20.67;50.85;99140.34;67834;1276;1016214;-65
2023/09/30 01:32:28;;;;;;;28.60;13.20;;;;;;;20.75;50.92;99146.71;67849;1276;1016542;-65
2023/09/30 01:35:30;;;;;;;29.90;13.60;;;;;;;20.85;50.89;99149.79;67839;1276;1016425;-65
2023/09/30 01:38:33;;;;;;;32.80;12.90;;;;;;;20.98;50.67;99147.27;67860;1276;1016068;-65
2023/09/30 01:41:35;;;;;;;35.70;13.10;;;;;;;21.02;50.80;99149.70;67872;1276;1016383;-65
2023/09/30 01:44:37;;;;;;;29.90;12.90;;;;;;;21.14;50.45;99151.27;67878;1276;1016384;-65
2023/09/30 01:47:40;;;;;;;31.10;13.00;;;;;;;21.26;50.29;99152.91;67869;1276;1016273;-65
2023/09/30 01:50:42;;;;;;;28.00;12.50;;;;;;;21.32;50.26;99155.59;67901;1276;1017266;-65
2023/09/30 01:53:44;;;;;;;30.40;13.50;;;;;;;21.35;50.25;99148.77;67875;1276;1016432;-65
2023/09/30 01:56:47;;;;;;;27.90;12.00;;;;;;;21.37;50.21;99147.35;67867;1276;1016307;-65
2023/09/30 01:59:49;;;;;;;30.20;12.70;;;;;;;21.39;50.27;99147.11;67849;1276;1016199;-65
2023/09/30 02:02:51;;;;;;;29.20;12.70;;;;;;;21.43;50.17;99147.04;67864;1276;1019822;-66
2023/09/30 02:05:54;;;;;;;33.50;16.00;;;;;;;21.53;50.08;99147.51;67876;1253;1016257;-65
2023/09/30 02:08:56;;;;;;;32.80;13.70;;;;;;;21.56;50.03;99145.77;67894;1276;1016495;-65
2023/09/30 02:11:58;;;;;;;34.40;14.90;;;;;;;21.52;50.11;99142.81;67882;1276;1016442;-65
2023/09/30 02:15:01;;;;;;;30.00;13.60;;;;;;;21.50;50.21;99138.52;67904;1276;1018751;-65
2023/09/30 02:18:05;;;;;;;29.20;12.50;;;;;;;21.54;50.17;99135.71;67908;1276;1018354;-65
2023/09/30 02:21:07;;;;;;;31.10;13.40;;;;;;;21.61;50.09;99133.54;67882;1276;1016393;-65
2023/09/30 02:24:10;;;;;;;28.60;13.00;;;;;;;21.69;49.99;99137.90;67810;1276;1016241;-65
2023/09/30 02:27:12;;;;;;;31.30;13.10;;;;;;;21.71;50.09;99133.05;67885;1276;1016755;-65
2023/09/30 02:30:16;;;;;;;33.70;12.80;;;;;;;21.76;50.00;99133.60;67831;1276;1016521;-65
2023/09/30 02:33:18;;;;;;;29.70;12.10;;;;;;;21.77;49.99;99133.11;67839;1276;1016549;-65
2023/09/30 02:36:20;;;;;;;30.50;11.90;;;;;;;21.78;49.99;99130.15;67841;1276;1016515;-65
2023/09/30 02:39:23;;;;;;;28.20;11.80;;;;;;;21.79;50.05;99133.49;67841;1276;1016482;-65
2023/09/30 02:42:25;;;;;;;27.50;11.30;;;;;;;21.81;50.07;99129.39;67869;1276;1016533;-65
2023/09/30 02:45:27;;;;;;;24.90;11.20;;;;;;;21.80;50.13;99123.55;67903;1276;1016330;-65
2023/09/30 02:48:30;;;;;;;29.30;12.10;;;;;;;21.87;49.79;99123.40;67837;1276;1016201;-65
2023/09/30 02:51:32;;;;;;;26.50;11.60;;;;;;;21.82;49.80;99121.96;67847;1276;1016476;-65
2023/09/30 02:54:34;;;;;;;28.30;11.90;;;;;;;21.71;50.04;99125.90;67851;1276;1016124;-65
2023/09/30 02:57:37;;;;;;;29.10;11.70;;;;;;;21.66;50.24;99122.96;67880;1276;1018955;-64
2023/09/30 03:00:39;;;;;;;27.70;12.40;;;;;;;21.62;50.20;99122.95;67886;1276;1016458;-65
2023/09/30 03:03:44;;;;;;;29.50;12.10;;;;;;;21.65;50.19;99121.59;67868;1276;1016901;-65
2023/09/30 03:06:46;;;;;;;28.70;12.00;;;;;;;21.62;50.39;99120.61;67884;1276;1016466;-65
2023/09/30 03:09:49;;;;;;;30.00;11.80;;;;;;;21.73;50.19;99119.14;67884;1276;1016511;-65
2023/09/30 03:12:51;;;;;;;29.40;11.90;;;;;;;21.73;50.22;99118.58;67886;1276;1016906;-64
2023/09/30 03:15:56;;;;;;;26.30;12.00;;;;;;;21.79;50.06;99115.48;67886;1275;1017012;-65
2023/09/30 03:18:59;;;;;;;28.30;11.70;;;;;;;21.78;49.93;99114.69;67871;1276;1016005;-65
2023/09/30 03:22:04;;;;;;;26.50;12.00;;;;;;;21.72;50.06;99111.59;67838;1276;1018970;-64
2023/09/30 03:25:08;;;;;;;27.00;11.50;;;;;;;21.77;49.98;99112.63;67854;1276;1017252;-65
2023/09/30 03:28:11;;;;;;;27.30;12.50;;;;;;;21.77;50.01;99109.45;67850;1276;1018072;-65
2023/09/30 03:31:13;;;;;;;28.40;11.90;;;;;;;21.79;50.10;99114.08;67890;1276;1018103;-65
2023/09/30 03:34:16;;;;;;;29.40;12.30;;;;;;;21.81;50.00;99112.45;67876;1276;1016494;-65
2023/09/30 03:37:19;;;;;;;29.20;12.70;;;;;;;21.93;49.82;99111.54;67855;1276;1016510;-65
2023/09/30 03:40:33;;;;;;;26.90;12.00;;;;;;;22.08;49.77;99114.86;67904;1276;1018345;-64
2023/09/30 03:43:40;;;;;;;23.90;11.50;;;;;;;22.13;49.76;99114.89;67898;1276;1016490;-65
2023/09/30 03:46:43;;;;;;;29.90;12.40;;;;;;;22.11;49.83;99115.76;67847;1276;1016508;-64
2023/09/30 03:49:45;;;;;;;25.50;12.10;;;;;;;22.07;49.87;99112.46;67857;1276;1016567;-65
2023/09/30 03:52:47;;;;;;;28.70;12.30;;;;;;;21.95;50.28;99114.95;67877;1276;1017901;-64
2023/09/30 03:55:50;;;;;;;26.40;11.30;;;;;;;21.95;50.26;99112.68;67843;1276;1016141;-65
2023/09/30 03:58:52;;;;;;;29.60;12.60;;;;;;;21.98;50.34;99112.65;67861;1276;1016421;-65
2023/09/30 04:01:55;;;;;;;28.80;12.60;;;;;;;22.01;50.28;99108.80;67888;1276;1015876;-65
2023/09/30 04:04:57;;;;;;;;;;;;;;;22.07;50.27;99108.33;67885;1276;1016260;-65
2023/09/30 04:08:00;;;;;;;29.00;13.30;;;;;;;22.05;50.33;99110.85;67855;1276;1016531;-66
2023/09/30 04:11:02;;;;;;;30.90;12.40;;;;;;;21.94;50.22;99110.08;67920;1276;1018168;-65
2023/09/30 04:14:05;;;;;;;26.30;11.70;;;;;;;21.91;50.45;99113.63;67870;1276;1016047;-65
2023/09/30 04:17:09;;;;;;;27.50;12.30;;;;;;;21.86;50.67;99120.33;67866;1276;1016437;-65
2023/09/30 04:20:15;;;;;;;25.90;11.70;;;;;;;21.88;50.94;99122.32;67861;1276;1016273;-65
2023/09/30 04:23:20;;;;;;;29.80;12.30;;;;;;;21.98;50.79;99123.67;67878;1276;1016373;-65
2023/09/30 04:26:22;;;;;;;28.90;12.50;;;;;;;21.98;50.87;99130.85;67901;1276;1016445;-65
2023/09/30 04:29:24;;;;;;;26.10;12.10;;;;;;;21.95;50.97;99133.65;67903;1276;1016075;-65
2023/09/30 04:32:27;;;;;;;30.10;11.90;;;;;;;22.00;51.04;99136.11;67909;1276;1016339;-65
2023/09/30 04:35:30;;;;;;;28.60;12.40;;;;;;;22.04;51.10;99140.13;67832;1276;1016399;-66
2023/09/30 04:38:33;;;;;;;29.60;12.40;;;;;;;22.08;51.01;99142.78;67900;1276;1016456;-66
2023/09/30 04:41:35;;;;;;;26.70;12.60;;;;;;;22.04;50.95;99144.41;67894;1276;1016376;-65
2023/09/30 04:44:38;;;;;;;27.50;12.40;;;;;;;22.08;51.11;99147.73;67864;1276;1016337;-66
2023/09/30 04:47:41;;;;;;;27.00;12.20;;;;;;;22.20;50.97;99148.64;67911;1276;1016178;-64
2023/09/30 04:50:43;;;;;;;26.60;11.80;;;;;;;22.30;50.78;99147.95;67896;1276;1016452;-64
2023/09/30 04:53:46;;;;;;;27.50;12.10;;;;;;;22.32;50.82;99156.87;67870;1276;1017257;-64
2023/09/30 04:56:48;;;;;;;25.20;12.00;;;;;;;22.38;50.88;99160.55;67847;1276;1016086;-65
2023/09/30 04:59:50;;;;;;;28.20;11.80;;;;;;;22.39;50.82;99164.05;67844;1276;1015611;-65
2023/09/30 05:02:53;;;;;;;26.40;12.10;;;;;;;22.39;50.82;99164.73;67903;1276;1016058;-65
2023/09/30 05:05:57;;;;;;;29.40;11.80;;;;;;;22.41;50.98;99162.38;67891;1276;1016397;-65
2023/09/30 05:09:00;;;;;;;25.30;11.10;;;;;;;22.44;51.06;99171.64;67851;1276;1019354;-65
2023/09/30 05:12:04;;;;;;;28.10;12.00;;;;;;;22.50;51.00;99171.16;67870;1276;1016909;-65
2023/09/30 05:15:06;;;;;;;27.70;11.50;;;;;;;22.56;51.06;99177.60;67887;1276;1015819;-65
2023/09/30 05:18:09;;;;;;;;;;;;;;;22.65;51.04;99182.48;67889;1276;1018699;-65
2023/09/30 05:21:11;;;;;;;28.30;11.90;;;;;;;22.67;51.12;99183.52;67890;1276;1016208;-65
2023/09/30 05:24:14;;;;;;;27.40;12.00;;;;;;;22.73;51.11;99184.16;67940;1276;1016538;-65
2023/09/30 05:27:16;;;;;;;26.80;11.00;;;;;;;22.66;51.33;99188.45;67888;1276;1017242;-65
2023/09/30 05:30:20;;;;;;;26.00;11.90;;;;;;;22.76;51.20;99189.48;67891;1276;1016238;-65
2023/09/30 05:33:22;;;;;;;27.90;10.80;;;;;;;22.83;51.25;99190.73;67887;1276;1016561;-65
2023/09/30 05:36:24;;;;;;;28.30;11.10;;;;;;;22.85;51.39;99195.71;67858;1276;1016404;-65
2023/09/30 05:39:28;;;;;;;29.10;12.50;;;;;;;22.95;51.25;99200.45;67873;1276;1017583;-64
2023/09/30 05:42:31;;;;;;;29.70;12.00;;;;;;;23.15;51.07;99206.98;67863;1276;1016453;-65
2023/09/30 05:45:34;;;;;;;32.80;12.40;;;;;;;23.49;50.62;99209.19;67880;1276;1016314;-65
2023/09/30 05:48:36;;;;;;;28.10;12.50;;;;;;;23.49;50.86;99213.98;67849;1276;1016556;-65
2023/09/30 05:51:39;;;;;;;25.70;11.60;;;;;;;23.32;51.12;99217.28;67859;1276;1016342;-65
2023/09/30 05:54:41;;;;;;;26.30;11.90;;;;;;;23.24;51.49;99218.45;67888;1276;1018712;-65
2023/09/30 05:57:43;;;;;;;28.90;12.40;;;;;;;23.31;51.56;99218.13;67902;1276;1017132;-66
2023/09/30 06:00:46;;;;;;;28.30;12.10;;;;;;;23.40;51.44;99211.80;67927;1276;1017236;-65
2023/09/30 06:03:49;;;;;;;31.50;12.90;;;;;;;23.45;51.43;99213.21;67895;1276;1016461;-64
2023/09/30 06:06:51;;;;;;;33.60;13.20;;;;;;;23.63;51.16;99212.34;67894;1276;1016360;-64
2023/09/30 06:09:54;;;;;;;32.60;12.90;;;;;;;23.60;51.17;99211.17;67916;1276;1016182;-65
2023/09/30 06:12:56;;;;;;;30.00;13.00;;;;;;;23.80;51.26;99208.64;67937;1276;1016314;-65
2023/09/30 06:15:59;;;;;;;30.10;13.50;;;;;;;23.86;51.37;99213.77;67856;1276;1016263;-66
2023/09/30 06:19:01;;;;;;;31.40;13.10;;;;;;;23.79;51.27;99217.00;67888;1276;1016435;-64
2023/09/30 06:22:04;;;;;;;29.60;13.20;;;;;;;23.87;51.28;99215.43;67895;1276;1016513;-65
2023/09/30 06:25:07;;;;;;;28.80;13.00;;;;;;;23.97;51.36;99216.98;67875;1276;1016328;-65
2023/09/30 06:28:09;;;;;;;27.90;12.90;;;;;;;24.14;51.21;99218.37;67909;1276;1016247;-65
2023/09/30 06:31:12;;;;;;;;;;;;;;;24.23;51.15;99223.45;67896;1276;1016411;-64
2023/09/30 06:34:14;;;;;;;28.50;12.20;;;;;;;24.01;51.41;99226.35;67895;1276;1016475;-64
2023/09/30 06:37:18;;;;;;;29.60;12.90;;;;;;;24.02;51.57;99236.59;67924;1276;1016174;-63
2023/09/30 06:40:20;;;;;;;29.50;13.10;;;;;;;24.05;51.57;99242.17;67916;1276;1018545;-64
2023/09/30 06:43:23;;;;;;;31.00;12.10;;;;;;;23.94;51.77;99245.52;67872;1276;1016850;-64
2023/09/30 06:46:25;;;;;;;;;;;;;;;24.00;51.93;99242.73;67866;1276;1016483;-64
2023/09/30 06:49:27;;;;;;;28.50;12.20;;;;;;;24.13;51.71;99247.52;67860;1276;1016477;-64
2023/09/30 06:52:30;;;;;;;27.60;11.60;;;;;;;24.08;51.89;99242.07;67907;1276;1016062;-64
2023/09/30 06:55:33;;;;;;;27.50;12.20;;;;;;;24.15;51.92;99257.13;67912;1276;1017110;-64
2023/09/30 06:58:35;;;;;;;28.30;12.50;;;;;;;24.03;51.99;99257.05;67881;1276;1016268;-65
2023/09/30 07:01:38;;;;;;;;;;;;;;;24.19;51.91;99258.52;67876;1276;1016411;-65
2023/09/30 07:04:40;;;;;;;30.30;13.20;;;;;;;24.01;52.25;99274.63;67870;1276;1016267;-65
2023/09/30 07:07:43;;;;;;;32.20;13.50;;;;;;;23.99;52.36;99273.03;67916;1276;1016211;-64
2023/09/30 07:10:48;;;;;;;23.90;11.40;;;;;;;24.15;52.27;99280.17;67869;1276;1016452;-64
2023/09/30 07:13:51;;;;;;;25.80;12.00;;;;;;;24.08;52.56;99283.73;67915;1276;1016240;-65
2023/09/30 07:16:54;;;;;;;24.90;11.60;;;;;;;24.05;52.89;99292.34;67893;1276;1016278;-64
2023/09/30 07:19:56;;;;;;;24.50;12.00;;;;;;;23.95;53.21;99293.29;67908;1253;1016137;-64
2023/09/30 07:22:59;;;;;;;;;;;;;;;24.06;52.88;99292.98;67920;1276;1017218;-64
2023/09/30 07:26:01;;;;;;;27.30;13.00;;;;;;;24.10;53.17;99299.20;67904;1276;1016440;-63
2023/09/30 07:29:04;;;;;;;30.20;13.90;;;;;;;24.19;53.18;99295.46;67880;1276;1016460;-64
2023/09/30 07:32:06;;;;;;;;;;;;;;;24.28;53.22;99297.40;67859;1276;1016439;-64
2023/09/30 07:35:08;;;;;;;28.30;13.10;;;;;;;24.28;53.57;99298.23;67865;1276;1017474;-64
2023/09/30 07:38:11;;;;;;;;;;;;;;;24.25;53.96;99299.86;67917;1276;1016275;-64
2023/09/30 07:41:13;;;;;;;28.40;13.20;;;;;;;24.30;54.24;99298.93;67940;1276;1016485;-63
2023/09/30 07:44:16;;;;;;;28.20;13.60;;;;;;;24.21;54.91;99298.27;67895;1276;1016464;-64
2023/09/30 07:47:18;;;;;;;35.70;14.30;;;;;;;23.46;57.45;99304.66;67883;1276;1016299;-64
2023/09/30 07:50:20;;;;;;;;;;;;;;;23.38;57.91;99304.10;67895;1276;1016157;-64
2023/09/30 07:53:23;;;;;;;27.40;12.70;;;;;;;23.45;58.33;99302.04;67898;1276;1016564;-64
2023/09/30 07:56:25;;;;;;;27.20;12.40;;;;;;;23.43;58.59;99302.50;67925;1276;1018874;-64
2023/09/30 07:59:27;;;;;;;28.10;11.90;;;;;;;23.39;59.14;99301.77;67918;1276;1015950;-64
2023/09/30 08:02:33;;;;;;;;;;;;;;;23.43;59.31;99304.98;67923;1276;1016518;-64
2023/09/30 08:05:35;;;;;;;28.30;12.90;;;;;;;23.53;59.08;99305.10;67930;1276;1016481;-64
2023/09/30 08:08:37;;;;;;;;;;;;;;;23.56;59.35;99318.89;67928;1276;1016033;-63
2023/09/30 08:11:40;;;;;;;26.10;12.30;;;;;;;23.52;59.44;99313.13;67861;1276;1016404;-64
2023/09/30 08:14:44;;;;;;;26.90;12.20;;;;;;;23.54;59.65;99313.73;67872;1276;1016298;-64
2023/09/30 08:17:46;;;;;;;28.00;12.70;;;;;;;23.62;59.69;99315.23;67896;1276;1016120;-64
2023/09/30 08:20:49;;;;;;;28.20;12.10;;;;;;;23.79;59.67;99313.71;67875;1276;1016787;-64
2023/09/30 08:23:51;;;;;;;;;;;;;;;23.92;59.73;99318.40;67922;1276;1016352;-64
2023/09/30 08:26:55;;;;;;;27.00;12.00;;;;;;;23.94;59.92;99324.79;67928;1276;1016608;-64
2023/09/30 08:29:57;;;;;;;28.50;12.90;;;;;;;23.77;60.37;99325.77;67914;1276;1016470;-64
2023/09/30 08:32:59;;;;;;;26.90;12.00;;;;;;;23.72;61.05;99335.23;67939;1276;1016450;-64
2023/09/30 08:36:06;;;;;;;;;;;;;;;23.78;61.09;99330.62;67884;1276;1016491;-64
2023/09/30 08:39:10;;;;;;;26.10;12.30;;;;;;;23.97;60.87;99333.98;67897;1276;1016392;-64
2023/09/30 08:42:12;;;;;;;26.80;13.00;;;;;;;23.97;60.89;99332.56;67890;1276;1016123;-64
2023/09/30 08:45:15;;;;;;;;;;;;;;;23.96;61.00;99328.05;67899;1276;1016184;-64
2023/09/30 08:48:17;;;;;;;26.60;13.10;;;;;;;24.23;60.34;99325.78;67918;1276;1016484;-65
2023/09/30 08:51:20;;;;;;;;;;;;;;;24.40;60.12;99320.90;67922;1276;1016153;-64
2023/09/30 08:54:23;;;;;;;28.70;13.20;;;;;;;24.50;59.74;99316.52;67897;1276;1015904;-64
2023/09/30 08:57:25;;;;;;;28.40;14.00;;;;;;;24.72;59.07;99317.18;67933;1276;1016045;-64
2023/09/30 09:00:28;;;;;;;28.80;14.80;;;;;;;24.76;59.43;99316.39;67917;1276;1015927;-64
2023/09/30 09:03:31;;;;;;;;;;;;;;;24.99;59.07;99320.35;67916;1276;1015972;-64
2023/09/30 09:06:33;;;;;;;29.00;14.50;;;;;;;25.28;58.81;99319.41;67917;1276;1018162;-64
2023/09/30 09:09:36;;;;;;;;;;;;;;;25.41;58.25;99318.81;67767;1276;1165291;-66
2023/09/30 09:12:39;;;;;;;31.90;15.10;;;;;;;25.49;58.27;99323.37;67884;1276;1016760;-64
2023/09/30 09:15:41;;;;;;;29.80;14.60;;;;;;;25.39;57.97;99320.50;67901;1276;1016191;-64
2023/09/30 09:18:44;;;;;;;;;;;;;;;25.29;58.43;99322.14;67936;1276;1018991;-64
2023/09/30 09:21:46;;;;;;;29.50;15.00;;;;;;;25.31;58.58;99323.32;67919;1276;1016253;-65
2023/09/30 09:24:48;;;;;;;29.30;14.80;;;;;;;25.20;59.09;99322.80;67903;1276;1016240;-65
2023/09/30 09:27:51;;;;;;;31.90;15.70;;;;;;;25.20;59.44;99323.34;67845;1276;1018690;-65
2023/09/30 09:30:54;;;;;;;;;;;;;;;25.10;59.56;99327.88;67897;1276;1016260;-64
2023/09/30 09:33:56;;;;;;;32.60;15.80;;;;;;;25.10;59.66;99326.60;67913;1276;1016497;-64
2023/09/30 09:36:58;;;;;;;;;;;;;;;24.93;60.46;99333.35;67920;1276;1017008;-65
2023/09/30 09:40:03;;;;;;;32.50;16.50;;;;;;;24.87;60.73;99339.05;67898;1276;1016451;-64
2023/09/30 09:43:06;;;;;;;33.50;17.10;;;;;;;25.03;60.82;99341.44;67897;1276;1016284;-64
2023/09/30 09:46:08;;;;;;;;;;;;;;;25.16;60.26;99345.63;67913;1276;1016002;-65
2023/09/30 09:49:10;;;;;;;32.20;17.10;;;;;;;25.03;60.57;99354.98;67934;1276;1016488;-64
2023/09/30 09:52:13;;;;;;;31.90;17.10;;;;;;;25.25;60.05;99352.31;67925;1276;1016844;-64
2023/09/30 09:55:15;;;;;;;33.50;17.20;;;;;;;25.56;59.60;99360.09;67875;1276;1016437;-64
2023/09/30 09:58:18;;;;;;;;;;;;;;;25.48;59.43;99356.15;67886;1276;1016470;-64
2023/09/30 10:01:21;;;;;;;;;;;;;;;25.71;59.33;99356.91;67928;1276;1016323;-64
2023/09/30 10:04:23;;;;;;;34.10;18.60;;;;;;;25.85;58.82;99357.62;67875;1276;1016806;-64
2023/09/30 10:07:25;;;;;;;;;;;;;;;26.06;57.89;99351.61;67889;1276;1016259;-64
2023/09/30 10:10:28;;;;;;;31.20;17.40;;;;;;;26.27;57.70;99351.32;67889;1276;1016509;-64
2023/09/30 10:13:30;;;;;;;;;;;;;;;26.42;56.78;99348.44;67895;1276;1017992;-63
2023/09/30 10:16:32;;;;;;;32.80;17.20;;;;;;;26.44;56.29;99354.44;67910;1276;1019646;-63
2023/09/30 10:19:35;;;;;;;;;;;;;;;26.38;56.11;99352.73;67932;1276;1016473;-64
2023/09/30 10:22:40;;;;;;;34.70;16.70;;;;;;;26.41;56.30;99356.41;67854;1276;1016366;-64
2023/09/30 10:25:47;;;;;;;34.10;17.40;;;;;;;26.47;55.89;99360.39;67918;1276;1016488;-63
2023/09/30 10:28:49;;;;;;;34.80;16.60;;;;;;;26.62;55.67;99359.33;67903;1276;1019852;-64
2023/09/30 10:31:52;;;;;;;31.10;16.20;;;;;;;26.62;55.50;99348.05;67882;1276;1016485;-64
2023/09/30 10:34:55;;;;;;;31.90;16.40;;;;;;;26.80;55.09;99342.45;67907;1276;1016461;-64
2023/09/30 10:37:57;;;;;;;31.60;16.00;;;;;;;27.01;54.91;99339.73;67896;1276;1016972;-64
2023/09/30 10:40:59;;;;;;;34.70;16.80;;;;;;;27.32;54.76;99333.80;67930;1276;1015910;-64
2023/09/30 10:44:02;;;;;;;30.70;15.70;;;;;;;27.51;53.69;99341.54;67893;1276;1016498;-64
2023/09/30 10:47:04;;;;;;;31.70;16.20;;;;;;;27.45;53.54;99339.95;67849;1276;1016154;-64
2023/09/30 10:50:06;;;;;;;32.20;15.10;;;;;;;27.64;53.46;99340.84;67867;1276;1018194;-64
2023/09/30 10:53:09;;;;;;;33.10;15.80;;;;;;;27.55;53.36;99337.63;67880;1276;1016017;-64
2023/09/30 10:56:11;;;;;;;31.00;14.70;;;;;;;27.42;53.95;99340.16;67914;1276;1018145;-64
2023/09/30 10:59:14;;;;;;;30.40;15.00;;;;;;;27.34;53.80;99339.59;67910;1276;1016485;-64
2023/09/30 11:02:16;;;;;;;31.90;14.90;;;;;;;27.28;53.55;99346.31;67883;1276;1016114;-64
2023/09/30 11:05:20;;;;;;;29.90;14.50;;;;;;;27.33;54.14;99337.05;67891;1276;1016457;-64
2023/09/30 11:08:22;;;;;;;29.60;13.70;;;;;;;27.41;53.70;99331.28;67857;1276;1016445;-64
2023/09/30 11:11:25;;;;;;;31.00;13.30;;;;;;;27.33;53.39;99336.23;67886;1276;1016477;-64
2023/09/30 11:14:28;;;;;;;30.90;13.40;;;;;;;27.06;53.00;99344.17;67919;1276;1016452;-63
2023/09/30 11:17:30;;;;;;;29.70;12.70;;;;;;;26.84;52.91;99345.64;67871;1276;1017013;-64
2023/09/30 11:20:33;;;;;;;28.70;11.80;;;;;;;26.60;53.10;99352.98;67865;1276;1016269;-64
2023/09/30 11:23:35;;;;;;;28.90;12.60;;;;;;;26.32;53.74;99350.39;67897;1276;1018935;-64
2023/09/30 11:26:37;;;;;;;27.30;11.90;;;;;;;26.16;54.26;99357.80;67906;1276;1016508;-64
2023/09/30 11:29:40;;;;;;;26.00;11.30;;;;;;;26.21;53.92;99357.35;67926;1276;1017960;-64
2023/09/30 11:32:42;;;;;;;;;;;;;;;26.02;54.62;99361.64;67895;1276;1017521;-64
2023/09/30 11:35:44;;;;;;;29.00;12.90;;;;;;;25.95;55.12;99361.35;67858;1276;1016603;-64
2023/09/30 11:38:47;;;;;;;;;;;;;;;25.82;55.86;99361.58;67874;1276;1016331;-64
2023/09/30 11:41:50;;;;;;;29.10;13.40;;;;;;;25.83;56.48;99359.69;67913;1276;1016443;-64
2023/09/30 11:44:52;;;;;;;;;;;;;;;25.79;57.25;99358.50;67897;1276;1016524;-64
2023/09/30 11:47:54;;;;;;;28.00;12.40;;;;;;;25.79;57.59;99356.20;67843;1276;1016445;-64
2023/09/30 11:50:57;;;;;;;;;;;;;;;25.68;58.09;99367.61;67874;1276;1016934;-64
2023/09/30 11:54:00;;;;;;;30.70;12.60;;;;;;;25.34;59.02;99369.23;67881;1276;1016478;-63
2023/09/30 11:57:03;;;;;;;30.40;12.40;;;;;;;25.05;59.48;99371.37;67872;1276;1016416;-63
2023/09/30 12:00:12;;;;;;;26.90;12.10;;;;;;;25.00;59.66;99368.00;67861;1276;1018722;-63
2023/09/30 12:03:15;;;;;;;29.30;10.70;;;;;;;24.80;60.55;99377.56;67885;1276;1015994;-63
2023/09/30 12:06:17;;;;;;;30.20;11.20;;;;;;;24.82;60.78;99382.03;67881;1276;1016605;-63
2023/09/30 12:09:25;;;;;;;;;;;;;;;24.86;60.78;99375.86;67881;1276;1016147;-63
2023/09/30 12:12:27;;;;;;;26.10;8.80;;;;;;;25.07;59.94;99372.94;67901;1276;1016443;-64
2023/09/30 12:15:29;;;;;;;;;;;;;;;25.35;58.91;99369.98;67908;1276;1016138;-63
2023/09/30 12:18:32;;;;;;;;;;;;;;;25.52;58.11;99374.99;67908;1276;1016513;-64
2023/09/30 12:21:36;;;;;;;24.30;7.70;;;;;;;25.38;56.53;99394.56;67872;1276;1018737;-64
2023/09/30 12:24:39;;;;;;;22.70;7.30;;;;;;;25.12;56.27;99403.85;67850;1276;1016238;-63
2023/09/30 12:27:41;;;;;;;21.10;6.30;;;;;;;25.24;55.17;99401.83;67871;1276;1016315;-63
2023/09/30 12:30:44;;;;;;;;;;;;;;;25.59;54.44;99393.62;67910;1276;1016106;-64
2023/09/30 12:33:50;;;;;;;19.30;5.40;;;;;;;25.41;52.23;99413.88;67893;1276;1016287;-63
2023/09/30 12:36:52;;;;;;;20.40;6.20;;;;;;;25.42;52.45;99400.02;67866;1276;1015956;-64
2023/09/30 12:39:55;;;;;;;;;;;;;;;25.39;52.78;99422.73;67865;1276;1016217;-64
2023/09/30 12:42:57;;;;;;;20.70;5.40;;;;;;;25.25;52.93;99421.63;67864;1276;1016440;-63
2023/09/30 12:46:00;;;;;;;20.40;5.50;;;;;;;25.00;52.93;99424.38;67888;1276;1016468;-64
2023/09/30 12:49:03;;;;;;;16.00;4.50;;;;;;;24.77;52.75;99423.50;67882;1276;1016451;-64
2023/09/30 12:52:05;;;;;;;;;;;;;;;24.77;52.53;99425.55;67851;1276;1016278;-63
2023/09/30 12:55:07;;;;;;;18.40;5.20;;;;;;;24.90;52.58;99424.08;67881;1276;1019692;-64
2023/09/30 12:58:09;;;;;;;;;;;;;;;24.94;52.26;99428.03;67904;1276;1016599;-64
2023/09/30 13:01:12;;;;;;;18.60;4.60;;;;;;;24.88;52.04;99427.65;67890;1276;1016495;-64
2023/09/30 13:04:15;;;;;;;21.20;5.00;;;;;;;24.92;52.00;99431.29;67894;1276;1016083;-63
2023/09/30 13:07:17;;;;;;;;;;;;;;;24.84;51.00;99433.98;67862;1276;1015793;-64
2023/09/30 13:10:19;;;;;;;18.30;4.30;;;;;;;24.97;50.99;99424.77;67882;1276;1016491;-64
2023/09/30 13:13:22;;;;;;;18.60;4.40;;;;;;;25.12;50.38;99429.31;67902;1276;1016488;-64
2023/09/30 13:16:24;;;;;;;15.70;4.00;;;;;;;25.37;50.74;99423.86;67890;1276;1015908;-64
2023/09/30 13:19:27;;;;;;;17.00;4.00;;;;;;;25.62;50.16;99424.39;67869;1276;1016368;-63
2023/09/30 13:22:29;;;;;;;;;;;;;;;25.80;49.05;99423.82;67875;1276;1016451;-64
2023/09/30 13:25:31;;;;;;;17.60;3.90;;;;;;;26.07;48.16;99419.71;67866;1276;1016388;-65
2023/09/30 13:28:34;;;;;;;;;;;;;;;26.16;47.73;99423.02;67917;1276;1016645;-63
2023/09/30 13:31:37;;;;;;;17.30;3.90;;;;;;;25.79;46.69;99429.48;67906;1276;1016059;-64
2023/09/30 13:34:39;;;;;;;19.30;4.10;;;;;;;25.43;45.60;99435.41;67842;1276;1016423;-64
2023/09/30 13:37:42;;;;;;;;;;;;;;;25.22;46.40;99428.34;67864;1276;1017063;-64
2023/09/30 13:40:45;;;;;;;17.40;3.80;;;;;;;25.32;46.60;99438.34;67891;1276;1016562;-64
2023/09/30 13:43:48;;;;;;;13.90;3.40;;;;;;;25.54;47.14;99427.45;67876;1276;1016522;-64
2023/09/30 13:46:50;;;;;;;;;;;;;;;25.72;47.11;99425.74;67915;1276;1016358;-64
2023/09/30 13:49:53;;;;;;;15.40;3.70;;;;;;;25.91;46.42;99426.05;67908;1276;1017149;-64
2023/09/30 13:52:55;;;;;;;15.40;3.30;;;;;;;25.94;45.84;99422.68;67867;1276;1016913;-64
2023/09/30 13:55:57;;;;;;;14.90;4.00;;;;;;;25.94;44.95;99430.91;67909;1276;1016557;-64